createdAt,value
2018-11-04T00:00:55.414Z,4.73
2018-11-04T00:01:58.795Z,5.43
2018-11-04T00:03:02.196Z,2.60
2018-11-04T00:04:05.848Z,18.53
2018-11-04T00:05:09.259Z,6.13
2018-11-04T00:06:12.674Z,3.37
2018-11-04T00:07:16.112Z,3.00
2018-11-04T00:08:19.565Z,3.00
2018-11-04T00:09:23.019Z,4.23
2018-11-04T00:10:26.422Z,3.80
2018-11-04T00:11:29.863Z,4.03
2018-11-04T00:12:33.384Z,2.80
2018-11-04T00:13:36.889Z,3.33
2018-11-04T00:14:40.293Z,5.50
2018-11-04T00:15:43.715Z,4.00
2018-11-04T00:16:47.118Z,3.73
2018-11-04T00:17:50.519Z,4.37
2018-11-04T00:18:53.907Z,4.73
2018-11-04T00:19:57.314Z,5.53
2018-11-04T00:21:00.694Z,3.87
2018-11-04T00:22:04.179Z,3.83
2018-11-04T00:23:07.630Z,5.27
2018-11-04T00:24:11.061Z,2.30
2018-11-04T00:25:15.084Z,4.63
2018-11-04T00:26:18.473Z,5.43
2018-11-04T00:27:21.964Z,2.40
2018-11-04T00:28:26.872Z,3.83
2018-11-04T00:29:30.324Z,4.37
2018-11-04T00:30:33.780Z,5.47
2018-11-04T00:31:37.189Z,3.30
2018-11-04T00:32:41.049Z,4.23
2018-11-04T00:33:44.459Z,8.83
2018-11-04T00:34:47.896Z,3.00
2018-11-04T00:35:51.387Z,2.30
2018-11-04T00:36:54.817Z,2.70
2018-11-04T00:37:58.203Z,2.80
2018-11-04T00:39:01.688Z,2.10
2018-11-04T00:40:05.578Z,2.73
2018-11-04T00:41:08.996Z,5.40
2018-11-04T00:42:12.450Z,2.80
2018-11-04T00:43:15.882Z,3.07
2018-11-04T00:44:19.312Z,3.10
2018-11-04T00:45:22.801Z,5.87
2018-11-04T00:46:26.166Z,6.00
2018-11-04T00:47:29.691Z,3.27
2018-11-04T00:48:33.149Z,3.77
2018-11-04T00:49:36.530Z,2.57
2018-11-04T00:50:39.912Z,6.07
2018-11-04T00:51:43.302Z,3.77
2018-11-04T00:52:46.677Z,2.70
2018-11-04T00:53:50.079Z,3.83
2018-11-04T00:54:53.494Z,2.00
2018-11-04T00:55:56.861Z,2.47
2018-11-04T00:57:00.315Z,3.17
2018-11-04T00:58:03.729Z,3.13
2018-11-04T00:59:07.227Z,1.90
2018-11-04T01:00:15.739Z,3.90
2018-11-04T01:01:19.187Z,5.20
2018-11-04T01:02:22.631Z,7.50
2018-11-04T01:03:26.052Z,3.57
2018-11-04T01:04:29.470Z,3.30
2018-11-04T01:05:32.925Z,4.30
2018-11-04T01:06:36.350Z,2.60
2018-11-04T01:07:40.324Z,3.33
2018-11-04T01:08:43.733Z,4.43
2018-11-04T01:09:47.156Z,8.70
2018-11-04T01:10:50.565Z,3.30
2018-11-04T01:11:53.997Z,4.10
2018-11-04T01:12:57.500Z,3.20
2018-11-04T01:14:00.906Z,3.00
2018-11-04T01:15:04.591Z,3.00
2018-11-04T01:16:08.094Z,3.27
2018-11-04T01:17:11.583Z,3.20
2018-11-04T01:18:15.056Z,5.80
2018-11-04T01:19:18.429Z,2.77
2018-11-04T01:20:22.125Z,3.13
2018-11-04T01:21:25.514Z,2.13
2018-11-04T01:22:29.117Z,3.13
2018-11-04T01:23:32.501Z,2.97
2018-11-04T01:24:35.940Z,2.00
2018-11-04T01:25:39.362Z,1.80
2018-11-04T01:26:42.939Z,2.10
2018-11-04T01:27:46.371Z,2.20
2018-11-04T01:28:49.761Z,1.93
2018-11-04T01:29:53.186Z,2.00
2018-11-04T01:30:56.570Z,2.27
2018-11-04T01:32:00.238Z,2.83
2018-11-04T01:33:03.690Z,2.03
2018-11-04T01:34:07.422Z,1.93
2018-11-04T01:35:10.824Z,2.50
2018-11-04T01:36:14.236Z,2.37
2018-11-04T01:37:17.647Z,3.60
2018-11-04T01:38:21.040Z,1.77
2018-11-04T01:39:24.460Z,2.07
2018-11-04T01:40:27.871Z,3.47
2018-11-04T01:41:31.281Z,2.07
2018-11-04T01:42:34.786Z,2.60
2018-11-04T01:43:38.229Z,7.17
2018-11-04T01:44:41.625Z,3.23
2018-11-04T01:45:45.056Z,1.93
2018-11-04T01:46:48.442Z,4.60
2018-11-04T01:47:51.829Z,2.63
2018-11-04T01:48:55.287Z,1.60
2018-11-04T01:49:58.677Z,2.73
2018-11-04T01:51:02.137Z,4.10
2018-11-04T01:52:06.083Z,4.60
2018-11-04T01:53:09.603Z,2.37
2018-11-04T01:54:13.272Z,2.03
2018-11-04T01:55:16.669Z,5.40
2018-11-04T01:56:20.094Z,5.80
2018-11-04T01:57:23.555Z,2.03
2018-11-04T01:58:26.995Z,2.70
2018-11-04T01:59:30.423Z,2.37
2018-11-04T02:00:33.883Z,3.23
2018-11-04T02:01:37.292Z,2.60
2018-11-04T02:02:41.034Z,2.07
2018-11-04T02:03:44.510Z,7.53
2018-11-04T02:04:47.935Z,1.80
2018-11-04T02:05:51.335Z,3.80
2018-11-04T02:06:54.710Z,2.80
2018-11-04T02:07:58.137Z,3.00
2018-11-04T02:09:01.520Z,3.73
2018-11-04T02:10:05.481Z,1.83
2018-11-04T02:11:08.888Z,2.20
2018-11-04T02:12:12.328Z,1.40
2018-11-04T02:13:15.724Z,2.17
2018-11-04T02:14:19.137Z,4.37
2018-11-04T02:15:22.569Z,1.40
2018-11-04T02:16:25.978Z,8.20
2018-11-04T02:17:29.392Z,2.77
2018-11-04T02:18:32.856Z,3.20
2018-11-04T02:19:36.733Z,2.13
2018-11-04T02:20:40.246Z,2.70
2018-11-04T02:21:43.641Z,2.20
2018-11-04T02:22:47.010Z,1.67
2018-11-04T02:23:50.523Z,9.33
2018-11-04T02:24:53.960Z,5.73
2018-11-04T02:25:57.402Z,3.17
2018-11-04T02:27:00.843Z,3.17
2018-11-04T02:28:04.351Z,1.90
2018-11-04T02:29:07.943Z,4.63
2018-11-04T02:30:12.968Z,12.50
2018-11-04T02:31:16.401Z,1.60
2018-11-04T02:32:20.131Z,3.33
2018-11-04T02:33:23.570Z,4.53
2018-11-04T02:34:27.026Z,1.97
2018-11-04T02:35:30.429Z,4.47
2018-11-04T02:36:34.456Z,2.43
2018-11-04T02:37:37.963Z,2.60
2018-11-04T02:38:41.391Z,5.83
2018-11-04T02:39:44.861Z,2.23
2018-11-04T02:40:48.241Z,2.47
2018-11-04T02:41:51.652Z,1.73
2018-11-04T02:42:55.074Z,4.20
2018-11-04T02:43:58.455Z,2.30
2018-11-04T02:45:01.840Z,3.33
2018-11-04T02:46:06.350Z,4.83
2018-11-04T02:47:09.937Z,1.93
2018-11-04T02:48:13.262Z,5.93
2018-11-04T02:49:16.692Z,5.13
2018-11-04T02:50:20.119Z,3.60
2018-11-04T02:51:23.551Z,2.43
2018-11-04T02:52:26.958Z,2.47
2018-11-04T02:53:30.401Z,3.77
2018-11-04T02:54:33.835Z,2.33
2018-11-04T02:55:37.260Z,2.07
2018-11-04T02:56:40.688Z,1.83
2018-11-04T02:57:44.086Z,1.70
2018-11-04T02:58:47.450Z,2.10
2018-11-04T02:59:50.890Z,1.93
2018-11-04T03:00:54.315Z,2.17
2018-11-04T03:01:57.764Z,2.10
2018-11-04T03:03:01.162Z,2.50
2018-11-04T03:04:04.969Z,1.80
2018-11-04T03:05:09.599Z,1.53
2018-11-04T03:06:13.036Z,3.17
2018-11-04T03:07:16.473Z,2.30
2018-11-04T03:08:19.929Z,2.80
2018-11-04T03:09:23.345Z,5.00
2018-11-04T03:10:26.721Z,2.60
2018-11-04T03:11:30.164Z,4.53
2018-11-04T03:12:33.845Z,1.53
2018-11-04T03:13:37.321Z,2.27
2018-11-04T03:14:40.731Z,2.57
2018-11-04T03:15:44.219Z,1.63
2018-11-04T03:16:47.703Z,1.73
2018-11-04T03:17:51.081Z,1.63
2018-11-04T03:18:54.430Z,2.87
2018-11-04T03:19:57.912Z,4.43
2018-11-04T03:21:01.412Z,2.73
2018-11-04T03:22:05.380Z,1.60
2018-11-04T03:23:08.992Z,1.77
2018-11-04T03:24:12.589Z,1.77
2018-11-04T03:25:15.989Z,2.80
2018-11-04T03:26:19.386Z,1.93
2018-11-04T03:27:22.811Z,1.20
2018-11-04T03:28:26.245Z,1.53
2018-11-04T03:29:29.645Z,4.27
2018-11-04T03:30:33.224Z,1.73
2018-11-04T03:31:36.735Z,4.23
2018-11-04T03:32:40.204Z,1.40
2018-11-04T03:33:43.795Z,1.77
2018-11-04T03:34:47.201Z,1.67
2018-11-04T03:35:50.621Z,1.60
2018-11-04T03:36:54.120Z,1.20
2018-11-04T03:37:57.586Z,2.53
2018-11-04T03:39:01.026Z,2.00
2018-11-04T03:40:04.858Z,1.33
2018-11-04T03:41:08.270Z,2.27
2018-11-04T03:42:11.665Z,2.33
2018-11-04T03:43:15.059Z,4.53
2018-11-04T03:44:18.471Z,2.60
2018-11-04T03:45:21.898Z,1.30
2018-11-04T03:46:25.296Z,1.50
2018-11-04T03:47:28.695Z,3.20
2018-11-04T03:48:32.168Z,2.10
2018-11-04T03:49:35.640Z,1.30
2018-11-04T03:50:39.068Z,2.20
2018-11-04T03:51:42.465Z,2.43
2018-11-04T03:52:45.887Z,3.17
2018-11-04T03:53:49.267Z,2.47
2018-11-04T03:54:52.653Z,1.43
2018-11-04T03:55:56.089Z,6.50
2018-11-04T03:56:59.486Z,5.13
2018-11-04T03:58:03.336Z,2.20
2018-11-04T03:59:06.926Z,8.93
2018-11-04T04:00:12.077Z,2.97
2018-11-04T04:01:15.495Z,7.43
2018-11-04T04:02:18.906Z,3.13
2018-11-04T04:03:22.416Z,3.43
2018-11-04T04:04:25.838Z,7.13
2018-11-04T04:05:29.373Z,2.10
2018-11-04T04:06:32.776Z,2.40
2018-11-04T04:07:36.234Z,0.97
2018-11-04T04:08:39.690Z,2.90
2018-11-04T04:09:43.084Z,3.23
2018-11-04T04:10:46.537Z,1.73
2018-11-04T04:11:49.929Z,11.57
2018-11-04T04:12:53.336Z,1.30
2018-11-04T04:13:56.729Z,2.10
2018-11-04T04:15:00.088Z,4.50
2018-11-04T04:16:03.536Z,1.50
2018-11-04T04:17:07.041Z,2.77
2018-11-04T04:18:10.788Z,1.67
2018-11-04T04:19:14.156Z,1.40
2018-11-04T04:20:17.554Z,1.70
2018-11-04T04:21:20.960Z,1.40
2018-11-04T04:22:24.365Z,2.27
2018-11-04T04:23:27.921Z,1.20
2018-11-04T04:24:31.331Z,3.07
2018-11-04T04:25:35.342Z,1.47
2018-11-04T04:26:39.097Z,2.10
2018-11-04T04:27:42.484Z,1.63
2018-11-04T04:28:45.889Z,1.40
2018-11-04T04:29:49.271Z,3.40
2018-11-04T04:30:52.670Z,2.83
2018-11-04T04:31:56.091Z,2.60
2018-11-04T04:32:59.478Z,1.80
2018-11-04T04:34:02.887Z,1.53
2018-11-04T04:35:07.501Z,1.43
2018-11-04T04:36:10.874Z,4.67
2018-11-04T04:37:14.318Z,4.37
2018-11-04T04:38:17.733Z,14.17
2018-11-04T04:39:21.106Z,1.37
2018-11-04T04:40:24.528Z,1.53
2018-11-04T04:41:27.906Z,5.43
2018-11-04T04:42:31.312Z,1.37
2018-11-04T04:43:34.740Z,2.87
2018-11-04T04:44:38.155Z,3.60
2018-11-04T04:45:41.641Z,1.60
2018-11-04T04:46:45.021Z,3.40
2018-11-04T04:47:48.458Z,1.43
2018-11-04T04:48:51.977Z,1.20
2018-11-04T04:49:55.461Z,3.70
2018-11-04T04:50:58.891Z,2.10
2018-11-04T04:52:02.255Z,5.43
2018-11-04T04:53:06.028Z,2.40
2018-11-04T04:54:09.427Z,4.30
2018-11-04T04:55:12.811Z,1.87
2018-11-04T04:56:16.215Z,1.60
2018-11-04T04:57:19.611Z,1.10
2018-11-04T04:58:23.370Z,2.87
2018-11-04T04:59:26.741Z,5.23
2018-11-04T05:00:30.152Z,1.27
2018-11-04T05:01:33.583Z,1.07
2018-11-04T05:02:37.006Z,4.00
2018-11-04T05:03:40.436Z,1.83
2018-11-04T05:04:43.858Z,3.10
2018-11-04T05:05:47.291Z,1.50
2018-11-04T05:06:50.672Z,1.83
2018-11-04T05:07:54.116Z,2.03
2018-11-04T05:08:57.630Z,3.00
2018-11-04T05:10:01.046Z,1.20
2018-11-04T05:11:04.527Z,6.00
2018-11-04T05:12:07.966Z,6.43
2018-11-04T05:13:11.388Z,5.00
2018-11-04T05:14:14.812Z,1.77
2018-11-04T05:15:18.277Z,2.10
2018-11-04T05:16:21.831Z,2.80
2018-11-04T05:17:25.276Z,1.93
2018-11-04T05:18:28.686Z,4.43
2018-11-04T05:19:32.075Z,2.23
2018-11-04T05:20:35.476Z,3.37
2018-11-04T05:21:38.848Z,2.60
2018-11-04T05:22:42.485Z,1.77
2018-11-04T05:23:45.888Z,4.10
2018-11-04T05:24:49.288Z,1.70
2018-11-04T05:25:52.744Z,1.63
2018-11-04T05:26:56.122Z,1.40
2018-11-04T05:27:59.546Z,3.37
2018-11-04T05:29:03.028Z,1.37
2018-11-04T05:30:08.701Z,2.60
2018-11-04T05:31:12.114Z,1.83
2018-11-04T05:32:15.505Z,1.70
2018-11-04T05:33:18.940Z,7.47
2018-11-04T05:34:22.455Z,2.73
2018-11-04T05:35:25.942Z,1.73
2018-11-04T05:36:29.362Z,1.80
2018-11-04T05:37:32.766Z,3.40
2018-11-04T05:38:36.178Z,1.30
2018-11-04T05:39:39.671Z,1.30
2018-11-04T05:40:43.116Z,1.73
2018-11-04T05:41:46.559Z,5.73
2018-11-04T05:42:50.058Z,1.70
2018-11-04T05:43:53.556Z,2.20
2018-11-04T05:44:57.038Z,1.07
2018-11-04T05:46:00.420Z,2.47
2018-11-04T05:47:03.839Z,1.40
2018-11-04T05:48:07.239Z,3.77
2018-11-04T05:49:10.649Z,1.20
2018-11-04T05:50:14.033Z,1.50
2018-11-04T05:51:17.457Z,3.37
2018-11-04T05:52:21.362Z,1.33
2018-11-04T05:53:24.784Z,2.30
2018-11-04T05:54:28.171Z,1.80
2018-11-04T05:55:31.615Z,4.00
2018-11-04T05:56:35.292Z,2.40
2018-11-04T05:57:38.839Z,3.77
2018-11-04T05:58:42.395Z,0.97
2018-11-04T05:59:45.915Z,3.23
2018-11-04T06:00:49.373Z,1.53
2018-11-04T06:01:52.819Z,4.07
2018-11-04T06:02:56.192Z,3.33
2018-11-04T06:03:59.707Z,2.23
2018-11-04T06:05:03.169Z,1.03
2018-11-04T06:06:06.649Z,3.30
2018-11-04T06:07:10.558Z,1.30
2018-11-04T06:08:13.921Z,1.40
2018-11-04T06:09:17.360Z,1.70
2018-11-04T06:10:20.771Z,2.10
2018-11-04T06:11:24.243Z,4.40
2018-11-04T06:12:27.648Z,3.43
2018-11-04T06:13:31.040Z,2.00
2018-11-04T06:14:34.418Z,1.73
2018-11-04T06:15:38.040Z,7.03
2018-11-04T06:16:41.441Z,2.83
2018-11-04T06:17:44.940Z,3.83
2018-11-04T06:18:48.340Z,2.70
2018-11-04T06:19:51.755Z,3.03
2018-11-04T06:20:55.136Z,5.33
2018-11-04T06:21:58.700Z,7.13
2018-11-04T06:23:02.095Z,3.17
2018-11-04T06:24:05.791Z,3.77
2018-11-04T06:25:09.385Z,3.77
2018-11-04T06:26:12.836Z,2.83
2018-11-04T06:27:16.198Z,2.93
2018-11-04T06:28:19.700Z,1.77
2018-11-04T06:29:23.139Z,3.00
2018-11-04T06:30:26.692Z,5.40
2018-11-04T06:31:30.079Z,1.70
2018-11-04T06:32:33.461Z,1.20
2018-11-04T06:33:36.951Z,1.70
2018-11-04T06:34:40.367Z,1.30
2018-11-04T06:35:43.778Z,3.70
2018-11-04T06:36:47.204Z,4.03
2018-11-04T06:37:50.632Z,3.67
2018-11-04T06:38:54.040Z,3.93
2018-11-04T06:39:57.680Z,2.93
2018-11-04T06:41:01.119Z,3.70
2018-11-04T06:42:04.637Z,2.10
2018-11-04T06:43:08.071Z,1.77
2018-11-04T06:44:11.457Z,1.80
2018-11-04T06:45:14.884Z,2.60
2018-11-04T06:46:18.282Z,1.40
2018-11-04T06:47:21.733Z,3.40
2018-11-04T06:48:25.160Z,4.30
2018-11-04T06:49:28.611Z,6.17
2018-11-04T06:50:32.068Z,23.80
2018-11-04T06:51:35.633Z,3.03
2018-11-04T06:52:39.112Z,9.07
2018-11-04T06:53:42.506Z,1.20
2018-11-04T06:54:45.939Z,1.23
2018-11-04T06:55:49.379Z,1.90
2018-11-04T06:56:52.805Z,3.87
2018-11-04T06:57:56.226Z,2.47
2018-11-04T06:58:59.643Z,2.60
2018-11-04T07:00:03.181Z,2.40
2018-11-04T07:01:06.522Z,1.60
2018-11-04T07:02:09.954Z,1.90
2018-11-04T07:03:13.361Z,2.63
2018-11-04T07:04:25.528Z,3.67
2018-11-04T07:05:28.934Z,1.67
2018-11-04T07:06:32.344Z,1.63
2018-11-04T07:07:36.011Z,5.43
2018-11-04T07:08:39.417Z,4.23
2018-11-04T07:09:42.850Z,2.30
2018-11-04T07:10:46.264Z,1.83
2018-11-04T07:11:50.234Z,2.00
2018-11-04T07:12:53.620Z,1.13
2018-11-04T07:13:57.065Z,1.20
2018-11-04T07:15:00.480Z,2.73
2018-11-04T07:16:03.872Z,7.30
2018-11-04T07:17:07.267Z,1.00
2018-11-04T07:18:10.764Z,1.67
2018-11-04T07:19:14.827Z,2.40
2018-11-04T07:20:18.233Z,1.50
2018-11-04T07:21:21.633Z,2.90
2018-11-04T07:22:25.023Z,1.57
2018-11-04T07:23:28.412Z,2.03
2018-11-04T07:24:31.840Z,1.23
2018-11-04T07:25:35.291Z,4.70
2018-11-04T07:26:38.738Z,1.90
2018-11-04T07:27:42.118Z,2.00
2018-11-04T07:28:45.489Z,3.37
2018-11-04T07:29:48.883Z,1.10
2018-11-04T07:30:52.277Z,11.00
2018-11-04T07:31:55.690Z,5.03
2018-11-04T07:32:59.103Z,2.80
2018-11-04T07:34:02.515Z,1.50
2018-11-04T07:35:06.698Z,1.13
2018-11-04T07:36:10.104Z,5.70
2018-11-04T07:37:13.537Z,1.83
2018-11-04T07:38:16.901Z,3.70
2018-11-04T07:39:20.334Z,1.83
2018-11-04T07:40:23.793Z,1.40
2018-11-04T07:41:27.224Z,13.17
2018-11-04T07:42:30.758Z,2.03
2018-11-04T07:43:34.187Z,3.40
2018-11-04T07:44:37.811Z,5.70
2018-11-04T07:45:41.207Z,7.83
2018-11-04T07:46:44.590Z,8.90
2018-11-04T07:47:48.001Z,8.40
2018-11-04T07:48:51.446Z,13.03
2018-11-04T07:49:54.830Z,13.67
2018-11-04T07:50:58.247Z,12.90
2018-11-04T07:52:01.650Z,14.93
2018-11-04T07:53:05.501Z,12.33
2018-11-04T07:54:08.910Z,14.40
2018-11-04T07:55:12.311Z,13.90
2018-11-04T07:56:16.226Z,9.20
2018-11-04T07:57:19.893Z,12.33
2018-11-04T07:58:23.355Z,14.90
2018-11-04T07:59:26.745Z,12.70
2018-11-04T08:00:30.144Z,16.07
2018-11-04T08:01:33.711Z,15.30
2018-11-04T08:02:37.332Z,21.13
2018-11-04T08:03:40.768Z,25.80
2018-11-04T08:04:44.183Z,15.83
2018-11-04T08:05:47.628Z,26.07
2018-11-04T08:06:51.027Z,15.50
2018-11-04T08:07:54.446Z,15.30
2018-11-04T08:08:57.990Z,15.40
2018-11-04T08:10:01.429Z,21.43
2018-11-04T08:11:05.216Z,17.97
2018-11-04T08:12:08.931Z,17.03
2018-11-04T08:13:12.294Z,18.33
2018-11-04T08:14:15.684Z,14.87
2018-11-04T08:15:19.079Z,16.83
2018-11-04T08:16:22.489Z,16.07
2018-11-04T08:17:26.285Z,17.47
2018-11-04T08:18:29.680Z,20.77
2018-11-04T08:19:33.282Z,18.67
2018-11-04T08:20:36.900Z,31.83
2018-11-04T08:21:40.342Z,26.80
2018-11-04T08:22:43.757Z,47.60
2018-11-04T08:23:47.159Z,38.97
2018-11-04T08:24:51.376Z,54.30
2018-11-04T08:25:54.766Z,45.20
2018-11-04T08:26:58.227Z,72.80
2018-11-04T08:28:01.703Z,65.13
2018-11-04T08:29:05.207Z,61.53
2018-11-04T08:30:09.302Z,53.70
2018-11-04T08:31:12.707Z,54.90
2018-11-04T08:32:16.275Z,38.73
2018-11-04T08:33:20.015Z,27.63
2018-11-04T08:34:23.486Z,27.93
2018-11-04T08:35:26.920Z,26.77
2018-11-04T08:36:30.359Z,22.00
2018-11-04T08:37:33.989Z,13.40
2018-11-04T08:38:37.427Z,88.57
2018-11-04T08:39:41.082Z,72.03
2018-11-04T08:40:44.454Z,72.17
2018-11-04T08:41:47.893Z,57.40
2018-11-04T08:42:51.318Z,41.50
2018-11-04T08:43:54.693Z,35.30
2018-11-04T08:44:58.108Z,36.83
2018-11-04T08:46:01.654Z,26.10
2018-11-04T08:47:05.686Z,31.73
2018-11-04T08:48:09.503Z,28.10
2018-11-04T08:49:12.915Z,34.03
2018-11-04T08:50:16.325Z,30.20
2018-11-04T08:51:19.747Z,35.97
2018-11-04T08:52:23.165Z,31.03
2018-11-04T08:53:26.767Z,27.00
2018-11-04T08:54:30.156Z,23.40
2018-11-04T08:55:33.638Z,24.00
2018-11-04T08:56:37.063Z,26.00
2018-11-04T08:57:40.641Z,21.07
2018-11-04T08:58:44.067Z,25.80
2018-11-04T08:59:47.486Z,25.87
2018-11-04T09:00:50.941Z,21.43
2018-11-04T09:01:54.344Z,21.27
2018-11-04T09:02:57.939Z,21.43
2018-11-04T09:04:01.363Z,24.40
2018-11-04T09:05:05.215Z,24.60
2018-11-04T09:06:08.648Z,19.20
2018-11-04T09:07:12.063Z,25.20
2018-11-04T09:08:15.540Z,29.07
2018-11-04T09:09:18.955Z,38.90
2018-11-04T09:10:22.366Z,27.07
2018-11-04T09:11:25.775Z,27.67
2018-11-04T09:12:29.201Z,32.60
2018-11-04T09:13:32.676Z,28.80
2018-11-04T09:14:36.779Z,31.33
2018-11-04T09:15:40.211Z,28.80
2018-11-04T09:16:43.626Z,28.30
2018-11-04T09:17:47.019Z,36.10
2018-11-04T09:18:50.505Z,25.00
2018-11-04T09:19:53.892Z,21.67
2018-11-04T09:20:57.288Z,38.47
2018-11-04T09:22:00.949Z,25.70
2018-11-04T09:23:04.359Z,27.27
2018-11-04T09:24:07.933Z,21.03
2018-11-04T09:25:12.166Z,21.73
2018-11-04T09:26:15.617Z,24.83
2018-11-04T09:27:19.065Z,20.50
2018-11-04T09:28:22.571Z,18.10
2018-11-04T09:29:26.019Z,14.40
2018-11-04T09:30:29.425Z,23.43
2018-11-04T09:31:32.861Z,21.80
2018-11-04T09:32:36.474Z,29.03
2018-11-04T09:33:39.892Z,21.43
2018-11-04T09:34:43.477Z,17.40
2018-11-04T09:35:47.049Z,27.00
2018-11-04T09:36:50.368Z,26.90
2018-11-04T09:37:53.816Z,25.63
2018-11-04T09:38:57.284Z,15.77
2018-11-04T09:40:00.727Z,16.63
2018-11-04T09:41:04.201Z,26.47
2018-11-04T09:42:07.704Z,19.77
2018-11-04T09:43:11.269Z,19.70
2018-11-04T09:44:14.718Z,22.97
2018-11-04T09:45:18.133Z,25.83
2018-11-04T09:46:21.566Z,20.23
2018-11-04T09:47:25.044Z,18.00
2018-11-04T09:48:28.437Z,24.10
2018-11-04T09:49:31.999Z,18.17
2018-11-04T09:50:35.768Z,26.70
2018-11-04T09:51:43.068Z,16.40
2018-11-04T09:52:46.526Z,18.03
2018-11-04T09:53:50.480Z,22.23
2018-11-04T09:54:53.910Z,17.93
2018-11-04T09:55:57.357Z,19.10
2018-11-04T09:57:00.898Z,14.47
2018-11-04T09:58:04.339Z,18.60
2018-11-04T09:59:07.804Z,20.13
2018-11-04T10:00:12.405Z,20.40
2018-11-04T10:01:15.872Z,17.07
2018-11-04T10:02:19.680Z,22.00
2018-11-04T10:03:23.124Z,15.23
2018-11-04T10:04:26.569Z,19.17
2018-11-04T10:05:30.037Z,15.40
2018-11-04T10:06:33.473Z,21.80
2018-11-04T10:07:37.252Z,14.63
2018-11-04T10:08:40.671Z,15.57
2018-11-04T10:09:44.164Z,15.20
2018-11-04T10:10:47.571Z,17.00
2018-11-04T10:11:51.136Z,16.77
2018-11-04T10:12:54.535Z,15.73
2018-11-04T10:13:58.110Z,14.50
2018-11-04T10:15:01.552Z,20.33
2018-11-04T10:16:05.286Z,14.83
2018-11-04T10:17:08.691Z,14.20
2018-11-04T10:18:12.105Z,17.30
2018-11-04T10:19:15.758Z,15.60
2018-11-04T10:20:19.417Z,15.47
2018-11-04T10:21:22.584Z,12.43
2018-11-04T10:22:25.992Z,12.00
2018-11-04T10:23:29.478Z,15.40
2018-11-04T10:24:33.051Z,10.40
2018-11-04T10:25:36.471Z,10.70
2018-11-04T10:26:40.085Z,12.17
2018-11-04T10:27:43.622Z,13.30
2018-11-04T10:28:47.059Z,11.53
2018-11-04T10:29:50.453Z,12.47
2018-11-04T10:30:53.941Z,13.93
2018-11-04T10:31:57.383Z,11.90
2018-11-04T10:33:00.881Z,14.17
2018-11-04T10:34:05.040Z,18.37
2018-11-04T10:35:09.323Z,13.30
2018-11-04T10:36:12.808Z,16.63
2018-11-04T10:37:16.292Z,11.73
2018-11-04T10:38:19.751Z,8.77
2018-11-04T10:39:23.204Z,17.07
2018-11-04T10:40:26.625Z,9.83
2018-11-04T10:41:30.061Z,13.80
2018-11-04T10:42:33.555Z,10.63
2018-11-04T10:43:37.277Z,12.20
2018-11-04T10:44:40.960Z,10.80
2018-11-04T10:45:44.374Z,11.17
2018-11-04T10:46:47.875Z,11.07
2018-11-04T10:47:52.915Z,12.97
2018-11-04T10:48:56.348Z,12.00
2018-11-04T10:49:59.736Z,11.63
2018-11-04T10:51:03.218Z,11.77
2018-11-04T10:52:06.950Z,10.13
2018-11-04T10:53:10.386Z,13.30
2018-11-04T10:54:13.819Z,10.73
2018-11-04T10:55:17.280Z,11.57
2018-11-04T10:56:20.822Z,9.57
2018-11-04T10:57:24.409Z,11.70
2018-11-04T10:58:27.918Z,8.80
2018-11-04T10:59:31.482Z,8.10
2018-11-04T11:01:09.348Z,11.20
2018-11-04T11:02:12.829Z,11.97
2018-11-04T11:03:16.253Z,8.13
2018-11-04T11:04:19.756Z,16.47
2018-11-04T11:05:23.245Z,6.97
2018-11-04T11:06:26.865Z,7.67
2018-11-04T11:07:30.333Z,8.83
2018-11-04T11:08:34.388Z,11.63
2018-11-04T11:09:38.152Z,9.07
2018-11-04T11:10:41.794Z,12.07
2018-11-04T11:11:45.305Z,9.13
2018-11-04T11:12:49.129Z,10.97
2018-11-04T11:13:52.579Z,10.20
2018-11-04T11:14:56.040Z,6.23
2018-11-04T11:15:59.771Z,9.60
2018-11-04T11:17:03.206Z,11.90
2018-11-04T11:18:06.658Z,10.60
2018-11-04T11:19:10.120Z,8.70
2018-11-04T11:20:13.683Z,8.10
2018-11-04T11:21:17.281Z,10.07
2018-11-04T11:22:20.776Z,9.03
2018-11-04T11:23:24.387Z,8.27
2018-11-04T11:24:27.901Z,10.10
2018-11-04T11:25:31.305Z,8.37
2018-11-04T11:26:34.709Z,8.77
2018-11-04T11:27:38.233Z,10.73
2018-11-04T11:28:41.656Z,9.60
2018-11-04T11:29:45.165Z,10.30
2018-11-04T11:30:48.640Z,10.43
2018-11-04T11:31:52.010Z,8.10
2018-11-04T11:32:55.486Z,11.50
2018-11-04T11:33:58.904Z,6.70
2018-11-04T11:35:02.361Z,10.17
2018-11-04T11:36:06.288Z,10.77
2018-11-04T11:37:09.730Z,8.10
2018-11-04T11:38:13.120Z,6.70
2018-11-04T11:39:16.474Z,7.10
2018-11-04T11:40:20.176Z,8.23
2018-11-04T11:41:23.604Z,6.57
2018-11-04T11:42:27.090Z,7.90
2018-11-04T11:43:30.474Z,8.63
2018-11-04T11:44:34.418Z,8.30
2018-11-04T11:45:37.923Z,7.33
2018-11-04T11:46:41.525Z,11.70
2018-11-04T11:47:44.997Z,9.70
2018-11-04T11:48:48.474Z,12.57
2018-11-04T11:49:51.879Z,12.73
2018-11-04T11:50:55.368Z,12.70
2018-11-04T11:51:59.082Z,13.30
2018-11-04T11:53:02.513Z,12.10
2018-11-04T11:54:06.598Z,11.10
2018-11-04T11:55:10.023Z,19.93
2018-11-04T11:56:13.469Z,12.53
2018-11-04T11:57:16.983Z,12.67
2018-11-04T11:58:20.396Z,14.37
2018-11-04T11:59:23.914Z,17.53
2018-11-04T12:00:27.394Z,14.00
2018-11-04T12:01:30.857Z,14.00
2018-11-04T12:02:34.627Z,18.10
2018-11-04T12:03:38.082Z,17.80
2018-11-04T12:04:42.027Z,14.97
2018-11-04T12:05:46.771Z,15.03
2018-11-04T12:06:51.378Z,16.80
2018-11-04T12:07:56.153Z,14.47
2018-11-04T12:09:00.635Z,18.77
2018-11-04T12:10:04.797Z,20.00
2018-11-04T12:11:08.762Z,14.17
2018-11-04T12:12:13.440Z,13.20
2018-11-04T12:13:17.521Z,18.30
2018-11-04T12:14:21.027Z,14.77
2018-11-04T12:15:26.486Z,11.73
2018-11-04T12:16:30.156Z,16.10
2018-11-04T12:17:34.352Z,14.27
2018-11-04T12:18:38.668Z,10.50
2018-11-04T12:19:43.095Z,16.30
2018-11-04T12:20:47.297Z,25.83
2018-11-04T12:21:50.703Z,14.67
2018-11-04T12:22:54.380Z,11.53
2018-11-04T12:23:57.885Z,13.60
2018-11-04T12:25:01.548Z,13.13
2018-11-04T12:26:06.903Z,14.90
2018-11-04T12:27:10.332Z,17.10
2018-11-04T12:28:13.797Z,12.20
2018-11-04T12:29:17.360Z,16.33
2018-11-04T12:30:21.144Z,12.23
2018-11-04T12:31:24.537Z,13.13
2018-11-04T12:32:28.009Z,12.93
2018-11-04T12:33:31.559Z,12.63
2018-11-04T12:34:35.068Z,16.03
2018-11-04T12:35:38.623Z,17.90
2018-11-04T12:36:42.046Z,12.07
2018-11-04T12:37:45.720Z,11.70
2018-11-04T12:38:49.146Z,11.40
2018-11-04T12:39:52.560Z,12.83
2018-11-04T12:40:55.957Z,11.13
2018-11-04T12:41:59.356Z,19.40
2018-11-04T12:43:02.745Z,15.40
2018-11-04T12:44:06.744Z,11.93
2018-11-04T12:45:11.656Z,10.93
2018-11-04T12:46:15.144Z,11.53
2018-11-04T12:47:18.545Z,12.77
2018-11-04T12:48:21.967Z,11.70
2018-11-04T12:49:25.387Z,14.30
2018-11-04T12:50:28.795Z,9.37
2018-11-04T12:51:32.226Z,13.50
2018-11-04T12:52:35.659Z,12.60
2018-11-04T12:53:39.099Z,14.90
2018-11-04T12:54:42.583Z,11.17
2018-11-04T12:55:46.011Z,14.87
2018-11-04T12:56:49.504Z,13.07
2018-11-04T12:57:52.908Z,13.20
2018-11-04T12:58:56.346Z,14.20
2018-11-04T12:59:59.804Z,13.93
2018-11-04T13:01:03.297Z,15.10
2018-11-04T13:02:06.927Z,12.80
2018-11-04T13:03:10.299Z,9.23
2018-11-04T13:04:13.678Z,12.17
2018-11-04T13:05:17.273Z,12.13
2018-11-04T13:06:20.924Z,13.93
2018-11-04T13:07:24.307Z,12.73
2018-11-04T13:08:27.697Z,9.93
2018-11-04T13:09:31.130Z,13.70
2018-11-04T13:10:37.113Z,12.73
2018-11-04T13:11:42.702Z,12.77
2018-11-04T13:12:46.143Z,12.83
2018-11-04T13:13:49.602Z,12.27
2018-11-04T13:14:53.083Z,13.90
2018-11-04T13:15:56.513Z,12.57
2018-11-04T13:17:00.059Z,11.53
2018-11-04T13:18:03.458Z,12.27
2018-11-04T13:19:06.901Z,16.20
2018-11-04T13:20:10.344Z,11.10
2018-11-04T13:21:13.846Z,12.17
2018-11-04T13:22:17.312Z,11.73
2018-11-04T13:23:20.708Z,14.20
2018-11-04T13:24:24.248Z,33.67
2018-11-04T13:25:27.687Z,20.80
2018-11-04T13:26:31.163Z,20.53
2018-11-04T13:27:34.662Z,20.07
2018-11-04T13:28:38.155Z,25.00
2018-11-04T13:29:41.536Z,24.37
2018-11-04T13:30:44.977Z,22.80
2018-11-04T13:31:48.432Z,24.10
2018-11-04T13:32:51.882Z,21.70
2018-11-04T13:33:55.304Z,22.53
2018-11-04T13:34:58.701Z,25.53
2018-11-04T13:36:02.137Z,24.83
2018-11-04T13:37:06.383Z,23.93
2018-11-04T13:38:10.137Z,21.90
2018-11-04T13:39:13.594Z,24.80
2018-11-04T13:40:17.003Z,23.93
2018-11-04T13:41:20.490Z,30.37
2018-11-04T13:42:23.928Z,22.10
2018-11-04T13:43:27.429Z,22.23
2018-11-04T13:44:30.753Z,25.73
2018-11-04T13:45:34.270Z,22.60
2018-11-04T13:46:37.716Z,24.03
2018-11-04T13:47:41.209Z,26.13
2018-11-04T13:48:44.689Z,21.93
2018-11-04T13:49:48.147Z,24.60
2018-11-04T13:50:51.549Z,20.77
2018-11-04T13:51:54.959Z,23.60
2018-11-04T13:52:58.380Z,22.70
2018-11-04T13:54:01.855Z,21.57
2018-11-04T13:55:05.924Z,19.57